• Join FlightAware (Why Join?)
  • Login
  • US Flag 
06:38PM EDT


 

Airport Tracker/Info


-or-


 

Live Flight TrackerFlight Track Log ✈ N24BE ✈ 03-Sep-2013 ✈ KJKA - KMBO

Flight Track Log - Related Links

Times and Time Zones

All times are in EDT time to prevent confusion due to time zone crossing. See the N24BE flight status page for this flight to view local times or setup timezone preferences in your user account.

Time Position Orientation Groundspeed Altitude Reporting Facility
EDT Latitude Longitude Course Direction KTS MPH feet Rate Location/Type
07:22PM 30.2956 -87.6794 North 102 117 400  Level Jacksonville Center
07:23PM 30.3144 -87.6781 North 90 104 1,100 780 Climbing Jacksonville Center
07:24PM 30.3461 -87.6700 12° North 107 123 1,900 720 Climbing Jacksonville Center
07:25PM 30.3944 -87.6561 14° North 112 129 2,900 600 Climbing Houston Center
07:26PM 30.4264 -87.6703 339° North 118 136 3,500 660 Climbing Houston Center
07:27PM 30.4556 -87.6883 355° North 118 136 4,300 660 Climbing Houston Center
07:28PM 30.4847 -87.7069 331° Northwest 120 138 4,900 660 Climbing Houston Center
07:29PM 30.5139 -87.7267 330° Northwest 120 138 5,700 600 Climbing Houston Center
07:30PM 30.5500 -87.7439 338° Northwest 118 136 6,200 240 Climbing Houston Center
07:31PM 30.5881 -87.7625 337° Northwest 139 160 6,200  Level Houston Center
07:32PM 30.6283 -87.7861 333° Northwest 155 178 6,200  Level Houston Center
07:33PM 30.6661 -87.8153 326° Northwest 161 185 6,200  Level Houston Center
07:34PM 30.7025 -87.8456 324° Northwest 162 186 6,200  Level Houston Center
07:35PM 30.7403 -87.8756 326° Northwest 163 188 6,200  Level Houston Center
07:36PM 30.7761 -87.9078 322° Northwest 163 188 6,200  Level Houston Center
07:37PM 30.8172 -87.9469 321° Northwest 161 185 6,200  Level Houston Center
07:38PM 30.8453 -87.9858 310° West 158 182 6,200  Level Houston Center
07:39PM 30.8722 -88.0281 307° West 160 184 6,200  Level Houston Center
07:40PM 30.9025 -88.0692 311° West 164 189 6,200  Level Houston Center
07:41PM 30.9372 -88.1069 317° Northwest 168 193 6,200 -60 Level Houston Center
07:42PM 30.9694 -88.1475 313° West 170 196 6,100 -120 Descending Houston Center
07:44PM 31.0000 -88.1881 311° West 169 194 6,000  Descending Houston Center
07:45PM 31.0306 -88.2261 313° West 164 189 6,100  Climbing Houston Center
07:46PM 31.0678 -88.2722 313° West 170 196 6,100  Level Houston Center
07:47PM 31.0975 -88.3114 312° West 166 191 6,100 -60 Level Houston Center
07:48PM 31.1281 -88.3519 311° West 166 191 6,000  Descending Houston Center
07:49PM 31.1644 -88.4008 311° West 167 192 6,100  Climbing Houston Center
07:50PM 31.1919 -88.4439 307° West 166 191 6,100  Level Houston Center
07:51PM 31.2186 -88.4892 305° West 167 192 6,100  Level Houston Center
07:52PM 31.2442 -88.5342 304° West 167 192 6,100 -60 Level Houston Center
07:53PM 31.2697 -88.5789 304° West 166 191 6,000  Descending Houston Center
07:54PM 31.2933 -88.6264 300° West 169 194 6,100  Climbing Houston Center
07:55PM 31.3158 -88.6744 299° West 170 196 6,100  Level Houston Center
07:56PM 31.3411 -88.7333 297° West 169 194 6,100 -60 Level Houston Center
07:57PM 31.3639 -88.7822 299° West 171 197 6,000  Descending Houston Center
07:58PM 31.3850 -88.8311 297° West 170 196 6,100  Climbing Houston Center
07:59PM 31.4050 -88.8819 295° West 171 197 6,000  Descending Houston Center
08:00PM 31.4203 -88.9328 289° West 168 193 6,100  Climbing Houston Center
08:01PM 31.4328 -88.9850 286° West 166 191 6,000  Descending Houston Center
08:02PM 31.4458 -89.0386 286° West 170 196 6,100  Climbing Houston Center
08:03PM 31.4622 -89.1014 287° West 169 194 6,100  Level Houston Center
08:04PM 31.4739 -89.1553 284° West 171 197 6,100  Level Houston Center
08:05PM 31.4867 -89.2100 285° West 173 199 6,100 -120 Level Houston Center
08:06PM 31.4967 -89.2644 282° West 172 198 5,900 -60 Descending Houston Center
08:07PM 31.5144 -89.3169 292° West 173 199 6,000 -240 Climbing Houston Center
08:08PM 31.5403 -89.3642 303° West 171 197 5,500 -480 Descending Houston Center
08:09PM 31.5719 -89.4094 309° West 178 205 5,100 -480 Descending Houston Center
08:10PM 31.6178 -89.4575 318° Northwest 183 211 4,600 -540 Descending Houston Center
08:11PM 31.6669 -89.4789 340° North 187 215 4,100 -180 Descending Houston Center
08:13PM 31.7672 -89.5267 338° Northwest 175 201 4,100  Level Memphis Center
08:14PM 31.8050 -89.5556 327° Northwest 164 189 4,100 -60 Level Memphis Center
08:15PM 31.8428 -89.5847 327° Northwest 164 189 4,000 -60 Descending Memphis Center
08:16PM 31.8783 -89.6136 325° Northwest 164 189 4,000 -60 Level Memphis Center
08:17PM 31.9142 -89.6428 325° Northwest 164 189 3,900 -300 Descending Memphis Center
08:18PM 31.9561 -89.6742 328° Northwest 164 189 3,400 -480 Descending Memphis Center
08:19PM 31.9939 -89.7033 327° Northwest 164 189 3,000 -240 Descending Memphis Center
08:20PM 32.0314 -89.7350 324° Northwest 169 194 3,000  Level Memphis Center
08:21PM 32.0650 -89.7617 326° Northwest 169 194 3,000  Level Memphis Center
08:22PM 32.0986 -89.7933 321° Northwest 158 182 3,100  Climbing Memphis Center
08:23PM 32.1322 -89.8250 321° Northwest 158 182 3,000  Descending Memphis Center
08:24PM 32.1636 -89.8517 324° Northwest 158 182 3,100  Climbing Memphis Center
08:25PM 32.1972 -89.8836 321° Northwest 158 182 3,000 -60 Descending Memphis Center
08:26PM 32.2286 -89.9128 322° Northwest 158 182 3,000 -180 Level Memphis Center
08:27PM 32.2661 -89.9444 324° Northwest 158 182 2,700 -300 Descending Memphis Center
08:28PM 32.2997 -89.9764 321° Northwest 158 182 2,400 -240 Descending Memphis Center
08:29PM 32.3394 -90.0181 318° Northwest 158 182 2,300 -120 Descending Memphis Center